createdAt,value
2017-06-26T00:00:18.448Z,934.69
2017-06-26T00:00:37.743Z,934.69
2017-06-26T00:00:57.036Z,934.74
2017-06-26T00:01:15.824Z,934.75
2017-06-26T00:01:35.118Z,934.7
2017-06-26T00:01:54.418Z,934.72
2017-06-26T00:02:13.718Z,934.73
2017-06-26T00:02:33.010Z,934.75
2017-06-26T00:02:51.780Z,934.73
2017-06-26T00:03:10.586Z,934.72
2017-06-26T00:03:29.371Z,934.76
2017-06-26T00:03:48.655Z,934.77
2017-06-26T00:04:07.447Z,934.78
2017-06-26T00:04:26.764Z,934.8
2017-06-26T00:04:46.079Z,934.7
2017-06-26T00:05:04.865Z,934.76
2017-06-26T00:05:23.662Z,934.83
2017-06-26T00:05:42.956Z,934.8
2017-06-26T00:06:02.281Z,934.78
2017-06-26T00:06:21.585Z,934.81
2017-06-26T00:06:40.929Z,934.86
2017-06-26T00:07:00.251Z,934.82
2017-06-26T00:07:19.040Z,934.85
2017-06-26T00:07:38.348Z,934.81
2017-06-26T00:07:57.657Z,934.87
2017-06-26T00:08:16.952Z,934.87
2017-06-26T00:08:36.258Z,934.86
2017-06-26T00:08:55.063Z,934.86
2017-06-26T00:09:13.330Z,934.88
2017-06-26T00:09:32.633Z,934.86
2017-06-26T00:09:51.942Z,934.89
2017-06-26T00:10:10.743Z,934.89
2017-06-26T00:10:29.507Z,934.89
2017-06-26T00:10:48.311Z,934.88
2017-06-26T00:11:07.624Z,934.88
2017-06-26T00:11:26.916Z,934.86
2017-06-26T00:11:46.224Z,934.83
2017-06-26T00:12:05.533Z,934.87
2017-06-26T00:12:24.851Z,934.84
2017-06-26T00:12:43.633Z,934.83
2017-06-26T00:13:02.437Z,934.85
2017-06-26T00:13:21.228Z,934.83
2017-06-26T00:13:40.539Z,934.86
2017-06-26T00:13:59.823Z,934.82
2017-06-26T00:14:19.130Z,934.87
2017-06-26T00:14:38.433Z,934.88
2017-06-26T00:14:57.193Z,934.81
2017-06-26T00:15:15.979Z,934.84
2017-06-26T00:15:35.265Z,934.82
2017-06-26T00:15:54.245Z,934.84
2017-06-26T00:16:13.574Z,934.82
2017-06-26T00:16:32.366Z,934.81
2017-06-26T00:16:51.649Z,934.83
2017-06-26T00:17:10.998Z,934.84
2017-06-26T00:17:29.262Z,934.83
2017-06-26T00:17:48.576Z,934.79
2017-06-26T00:18:07.371Z,934.84
2017-06-26T00:18:26.687Z,934.8
2017-06-26T00:18:45.987Z,934.84
2017-06-26T00:19:05.263Z,934.8
2017-06-26T00:19:24.049Z,934.81
2017-06-26T00:19:43.350Z,934.83
2017-06-26T00:20:02.685Z,934.83
2017-06-26T00:20:21.981Z,934.84
2017-06-26T00:20:41.291Z,934.83
2017-06-26T00:21:00.593Z,934.84
2017-06-26T00:21:19.377Z,934.87
2017-06-26T00:21:37.643Z,934.83
2017-06-26T00:21:56.955Z,934.83
2017-06-26T00:22:16.240Z,934.81
2017-06-26T00:22:35.530Z,934.82
2017-06-26T00:22:54.797Z,934.85
2017-06-26T00:23:14.107Z,934.82
2017-06-26T00:23:33.390Z,934.82
2017-06-26T00:23:52.689Z,934.88
2017-06-26T00:24:11.977Z,934.86
2017-06-26T00:24:30.760Z,934.86
2017-06-26T00:24:50.060Z,934.87
2017-06-26T00:25:09.349Z,934.84
2017-06-26T00:25:28.658Z,934.83
2017-06-26T00:25:47.472Z,934.84
2017-06-26T00:26:06.791Z,934.79
2017-06-26T00:26:25.613Z,934.83
2017-06-26T00:26:44.908Z,934.82
2017-06-26T00:27:04.222Z,934.82
2017-06-26T00:27:23.507Z,934.78
2017-06-26T00:27:42.815Z,934.82
2017-06-26T00:28:02.099Z,934.81
2017-06-26T00:28:20.897Z,934.81
2017-06-26T00:28:40.182Z,934.81
2017-06-26T00:28:59.470Z,934.81
2017-06-26T00:29:18.805Z,934.77
2017-06-26T00:29:38.124Z,934.8
2017-06-26T00:29:57.426Z,934.77
2017-06-26T00:30:15.692Z,934.77
2017-06-26T00:30:35.243Z,934.77
2017-06-26T00:30:54.532Z,934.8
2017-06-26T00:31:13.823Z,934.8
2017-06-26T00:31:33.148Z,934.77
2017-06-26T00:31:51.929Z,934.78
2017-06-26T00:32:11.227Z,934.78
2017-06-26T00:32:30.555Z,934.76
2017-06-26T00:32:49.868Z,934.75
2017-06-26T00:33:09.155Z,934.71
2017-06-26T00:33:28.445Z,934.74
2017-06-26T00:33:47.213Z,934.78
2017-06-26T00:34:06.487Z,934.76
2017-06-26T00:34:25.757Z,934.72
2017-06-26T00:34:45.045Z,934.71
2017-06-26T00:35:04.344Z,934.65
2017-06-26T00:35:23.634Z,934.72
2017-06-26T00:35:42.932Z,934.71
2017-06-26T00:36:02.225Z,934.74
2017-06-26T00:36:21.518Z,934.71
2017-06-26T00:36:40.880Z,934.75
2017-06-26T00:37:00.176Z,934.73
2017-06-26T00:37:18.961Z,934.75
2017-06-26T00:37:38.309Z,934.76
2017-06-26T00:37:57.121Z,934.76
2017-06-26T00:38:16.409Z,934.74
2017-06-26T00:38:35.709Z,934.76
2017-06-26T00:38:55.031Z,934.75
2017-06-26T00:39:13.805Z,934.76
2017-06-26T00:39:33.096Z,934.76
2017-06-26T00:39:52.403Z,934.81
2017-06-26T00:40:11.164Z,934.82
2017-06-26T00:40:29.945Z,934.79
2017-06-26T00:40:49.240Z,934.8
2017-06-26T00:41:08.556Z,934.79
2017-06-26T00:41:27.855Z,934.81
2017-06-26T00:41:47.144Z,934.8
2017-06-26T00:42:06.434Z,934.86
2017-06-26T00:42:25.726Z,934.84
2017-06-26T00:42:44.001Z,934.84
2017-06-26T00:43:03.295Z,934.79
2017-06-26T00:43:22.100Z,934.81
2017-06-26T00:43:41.394Z,934.83
2017-06-26T00:44:00.674Z,934.82
2017-06-26T00:44:19.963Z,934.82
2017-06-26T00:44:38.751Z,934.82
2017-06-26T00:44:58.063Z,934.85
2017-06-26T00:45:17.399Z,934.86
2017-06-26T00:45:36.694Z,934.85
2017-06-26T00:45:55.991Z,934.8
2017-06-26T00:46:15.319Z,934.86
2017-06-26T00:46:34.618Z,934.84
2017-06-26T00:46:53.913Z,934.84
2017-06-26T00:47:12.730Z,934.84
2017-06-26T00:47:32.040Z,934.84
2017-06-26T00:47:51.344Z,934.85
2017-06-26T00:48:09.634Z,934.84
2017-06-26T00:48:28.937Z,934.85
2017-06-26T00:48:47.718Z,934.83
2017-06-26T00:49:06.498Z,934.85
2017-06-26T00:49:25.786Z,934.81
2017-06-26T00:49:45.066Z,934.8
2017-06-26T00:50:04.358Z,934.79
2017-06-26T00:50:23.630Z,934.8
2017-06-26T00:50:42.946Z,934.82
2017-06-26T00:51:02.257Z,934.75
2017-06-26T00:51:21.610Z,934.81
2017-06-26T00:51:40.894Z,934.79
2017-06-26T00:52:00.171Z,934.78
2017-06-26T00:52:18.985Z,934.79
2017-06-26T00:52:38.334Z,934.81
2017-06-26T00:52:57.631Z,934.82
2017-06-26T00:53:16.937Z,934.8
2017-06-26T00:53:35.707Z,934.78
2017-06-26T00:53:54.519Z,934.78
2017-06-26T00:54:13.819Z,934.81
2017-06-26T00:54:33.134Z,934.8
2017-06-26T00:54:52.423Z,934.8
2017-06-26T00:55:11.722Z,934.82
2017-06-26T00:55:31.046Z,934.79
2017-06-26T00:55:50.340Z,934.8
2017-06-26T00:56:09.666Z,934.77
2017-06-26T00:56:28.964Z,934.75
2017-06-26T00:56:48.280Z,934.76
2017-06-26T00:57:07.575Z,934.76
2017-06-26T00:57:26.876Z,934.81
2017-06-26T00:57:45.640Z,934.75
2017-06-26T00:58:04.938Z,934.78
2017-06-26T00:58:24.250Z,934.75
2017-06-26T00:58:43.571Z,934.72
2017-06-26T00:59:02.862Z,934.76
2017-06-26T00:59:22.162Z,934.76
2017-06-26T00:59:41.458Z,934.71
2017-06-26T01:00:00.753Z,934.73
2017-06-26T01:00:19.525Z,934.73
2017-06-26T01:00:38.810Z,934.71
2017-06-26T01:00:58.099Z,934.69
2017-06-26T01:01:17.395Z,934.71
2017-06-26T01:01:36.713Z,934.68
2017-06-26T01:01:56.034Z,934.68
2017-06-26T01:02:15.344Z,934.69
2017-06-26T01:02:34.161Z,934.67
2017-06-26T01:02:53.455Z,934.7
2017-06-26T01:03:12.772Z,934.69
2017-06-26T01:03:32.063Z,934.68
2017-06-26T01:03:51.354Z,934.66
2017-06-26T01:04:10.655Z,934.67
2017-06-26T01:04:29.432Z,934.63
2017-06-26T01:04:48.729Z,934.62
2017-06-26T01:05:08.038Z,934.66
2017-06-26T01:05:27.329Z,934.68
2017-06-26T01:05:46.648Z,934.64
2017-06-26T01:06:05.937Z,934.63
2017-06-26T01:06:25.247Z,934.63
2017-06-26T01:06:44.542Z,934.64
2017-06-26T01:07:03.846Z,934.65
2017-06-26T01:07:22.624Z,934.64
2017-06-26T01:07:41.929Z,934.65
2017-06-26T01:08:01.227Z,934.61
2017-06-26T01:08:20.017Z,934.65
2017-06-26T01:08:39.315Z,934.64
2017-06-26T01:08:58.744Z,934.65
2017-06-26T01:09:18.028Z,934.58
2017-06-26T01:09:37.333Z,934.61
2017-06-26T01:09:56.138Z,934.64
2017-06-26T01:10:15.417Z,934.63
2017-06-26T01:10:34.204Z,934.6
2017-06-26T01:10:53.492Z,934.61
2017-06-26T01:11:12.783Z,934.64
2017-06-26T01:11:32.113Z,934.62
2017-06-26T01:11:50.914Z,934.61
2017-06-26T01:12:09.696Z,934.59
2017-06-26T01:12:28.987Z,934.62
2017-06-26T01:12:48.280Z,934.61
2017-06-26T01:13:07.597Z,934.59
2017-06-26T01:13:26.386Z,934.6
2017-06-26T01:13:45.704Z,934.58
2017-06-26T01:14:05.024Z,934.58
2017-06-26T01:14:24.325Z,934.56
2017-06-26T01:14:43.657Z,934.6
2017-06-26T01:15:02.975Z,934.59
2017-06-26T01:15:21.739Z,934.62
2017-06-26T01:15:40.535Z,934.58
2017-06-26T01:15:59.829Z,934.55
2017-06-26T01:16:19.127Z,934.56
2017-06-26T01:16:38.424Z,934.57
2017-06-26T01:16:57.720Z,934.56
2017-06-26T01:17:15.983Z,934.56
2017-06-26T01:17:35.324Z,934.62
2017-06-26T01:17:54.616Z,934.58
2017-06-26T01:18:13.398Z,934.59
2017-06-26T01:18:32.681Z,934.59
2017-06-26T01:18:51.975Z,934.61
2017-06-26T01:19:11.294Z,934.56
2017-06-26T01:19:30.100Z,934.57
2017-06-26T01:19:49.394Z,934.59
2017-06-26T01:20:07.684Z,934.58
2017-06-26T01:20:26.466Z,934.6
2017-06-26T01:20:45.809Z,934.61
2017-06-26T01:21:04.585Z,934.61
2017-06-26T01:21:23.872Z,934.62
2017-06-26T01:21:43.154Z,934.61
2017-06-26T01:22:02.468Z,934.62
2017-06-26T01:22:21.775Z,934.6
2017-06-26T01:22:40.566Z,934.64
2017-06-26T01:22:59.857Z,934.62
2017-06-26T01:23:19.178Z,934.57
2017-06-26T01:23:38.520Z,934.6
2017-06-26T01:23:57.834Z,934.57
2017-06-26T01:24:17.140Z,934.57
2017-06-26T01:24:36.506Z,934.56
2017-06-26T01:24:55.825Z,934.57
2017-06-26T01:25:14.626Z,934.61
2017-06-26T01:25:33.935Z,934.58
2017-06-26T01:25:52.709Z,934.57
2017-06-26T01:26:11.474Z,934.58
2017-06-26T01:26:30.779Z,934.57
2017-06-26T01:26:50.069Z,934.59
2017-06-26T01:27:09.381Z,934.56
2017-06-26T01:27:28.663Z,934.53
2017-06-26T01:27:48.008Z,934.53
2017-06-26T01:28:07.322Z,934.53
2017-06-26T01:28:26.594Z,934.55
2017-06-26T01:28:45.890Z,934.56
2017-06-26T01:29:05.201Z,934.54
2017-06-26T01:29:24.487Z,934.54
2017-06-26T01:29:43.783Z,934.57
2017-06-26T01:30:03.074Z,934.56
2017-06-26T01:30:22.400Z,934.59
2017-06-26T01:30:41.714Z,934.58
2017-06-26T01:31:01.024Z,934.55
2017-06-26T01:31:20.369Z,934.55
2017-06-26T01:31:39.687Z,934.59
2017-06-26T01:31:58.989Z,934.52
2017-06-26T01:32:17.770Z,934.54
2017-06-26T01:32:37.072Z,934.55
2017-06-26T01:32:56.364Z,934.54
2017-06-26T01:33:15.656Z,934.52
2017-06-26T01:33:34.950Z,934.56
2017-06-26T01:33:54.247Z,934.58
2017-06-26T01:34:13.562Z,934.55
2017-06-26T01:34:32.891Z,934.54
2017-06-26T01:34:52.209Z,934.57
2017-06-26T01:35:11.549Z,934.55
2017-06-26T01:35:30.859Z,934.51
2017-06-26T01:35:50.149Z,934.55
2017-06-26T01:36:09.470Z,934.54
2017-06-26T01:36:28.807Z,934.55
2017-06-26T01:36:47.597Z,934.54
2017-06-26T01:37:06.875Z,934.55
2017-06-26T01:37:25.657Z,934.53
2017-06-26T01:37:44.946Z,934.53
2017-06-26T01:38:03.755Z,934.56
2017-06-26T01:38:22.569Z,934.51
2017-06-26T01:38:41.860Z,934.59
2017-06-26T01:39:01.155Z,934.54
2017-06-26T01:39:20.435Z,934.54
2017-06-26T01:39:39.763Z,934.55
2017-06-26T01:39:59.046Z,934.55
2017-06-26T01:40:17.853Z,934.56
2017-06-26T01:40:37.138Z,934.54
2017-06-26T01:40:56.457Z,934.53
2017-06-26T01:41:15.779Z,934.54
2017-06-26T01:41:35.075Z,934.54
2017-06-26T01:41:54.396Z,934.55
2017-06-26T01:42:13.698Z,934.53
2017-06-26T01:42:33.051Z,934.57
2017-06-26T01:42:52.358Z,934.53
2017-06-26T01:43:11.666Z,934.53
2017-06-26T01:43:30.478Z,934.52
2017-06-26T01:43:49.793Z,934.55
2017-06-26T01:44:09.081Z,934.52
2017-06-26T01:44:28.395Z,934.52
2017-06-26T01:44:47.224Z,934.52
2017-06-26T01:45:06.547Z,934.59
2017-06-26T01:45:25.856Z,934.55
2017-06-26T01:45:44.663Z,934.53
2017-06-26T01:46:03.473Z,934.5
2017-06-26T01:46:22.750Z,934.52
2017-06-26T01:46:42.048Z,934.5
2017-06-26T01:47:01.357Z,934.51
2017-06-26T01:47:20.672Z,934.5
2017-06-26T01:47:39.968Z,934.5
2017-06-26T01:47:59.262Z,934.51
2017-06-26T01:48:18.040Z,934.47
2017-06-26T01:48:37.336Z,934.49
2017-06-26T01:48:56.641Z,934.55
2017-06-26T01:49:15.971Z,934.56
2017-06-26T01:49:35.258Z,934.52
2017-06-26T01:49:54.575Z,934.51
2017-06-26T01:50:13.885Z,934.49
2017-06-26T01:50:33.176Z,934.51
2017-06-26T01:50:52.453Z,934.49
2017-06-26T01:51:11.777Z,934.46
2017-06-26T01:51:30.562Z,934.47
2017-06-26T01:51:49.868Z,934.51
2017-06-26T01:52:09.183Z,934.5
2017-06-26T01:52:28.484Z,934.51
2017-06-26T01:52:47.783Z,934.53
2017-06-26T01:53:07.070Z,934.52
2017-06-26T01:53:26.345Z,934.51
2017-06-26T01:53:45.635Z,934.51
2017-06-26T01:54:04.926Z,934.5
2017-06-26T01:54:24.197Z,934.49
2017-06-26T01:54:43.501Z,934.51
2017-06-26T01:55:02.823Z,934.45
2017-06-26T01:55:21.099Z,934.45
2017-06-26T01:55:39.900Z,934.41
2017-06-26T01:55:59.185Z,934.44
2017-06-26T01:56:18.495Z,934.42
2017-06-26T01:56:37.841Z,934.43
2017-06-26T01:56:57.137Z,934.43
2017-06-26T01:57:16.468Z,934.42
2017-06-26T01:57:35.770Z,934.42
2017-06-26T01:57:54.567Z,934.43
2017-06-26T01:58:13.866Z,934.45
2017-06-26T01:58:32.666Z,934.44
2017-06-26T01:58:51.968Z,934.43
2017-06-26T01:59:11.274Z,934.44
2017-06-26T01:59:30.591Z,934.42
2017-06-26T01:59:49.875Z,934.42
2017-06-26T02:00:09.187Z,934.41
2017-06-26T02:00:28.489Z,934.39
2017-06-26T02:00:47.309Z,934.41
2017-06-26T02:01:06.606Z,934.42
2017-06-26T02:01:25.915Z,934.43
2017-06-26T02:01:45.217Z,934.43
2017-06-26T02:02:04.565Z,934.45
2017-06-26T02:02:23.853Z,934.44
2017-06-26T02:02:42.627Z,934.47
2017-06-26T02:03:01.931Z,934.43
2017-06-26T02:03:35.205Z,934.46
2017-06-26T02:03:54.562Z,934.45
2017-06-26T02:04:13.863Z,934.44
2017-06-26T02:04:32.651Z,934.44
2017-06-26T02:04:51.980Z,934.44
2017-06-26T02:05:11.280Z,934.44
2017-06-26T02:05:30.583Z,934.46
2017-06-26T02:05:49.854Z,934.44
2017-06-26T02:06:09.196Z,934.45
2017-06-26T02:06:28.479Z,934.47
2017-06-26T02:06:47.786Z,934.45
2017-06-26T02:07:07.079Z,934.46
2017-06-26T02:07:25.882Z,934.47
2017-06-26T02:07:45.196Z,934.45
2017-06-26T02:08:04.027Z,934.44
2017-06-26T02:08:23.327Z,934.43
2017-06-26T02:08:41.607Z,934.43
2017-06-26T02:09:00.892Z,934.44
2017-06-26T02:09:19.653Z,934.42
2017-06-26T02:09:38.420Z,934.44
2017-06-26T02:09:57.720Z,934.45
2017-06-26T02:10:16.492Z,934.44
2017-06-26T02:10:35.799Z,934.43
2017-06-26T02:10:55.117Z,934.45
2017-06-26T02:11:14.432Z,934.42
2017-06-26T02:11:33.734Z,934.48
2017-06-26T02:11:53.044Z,934.47
2017-06-26T02:12:12.418Z,934.45
2017-06-26T02:12:31.217Z,934.46
2017-06-26T02:12:50.514Z,934.47
2017-06-26T02:13:09.287Z,934.47
2017-06-26T02:13:28.075Z,934.47
2017-06-26T02:13:47.405Z,934.45
2017-06-26T02:14:06.701Z,934.44
2017-06-26T02:14:26.013Z,934.46
2017-06-26T02:14:45.310Z,934.42
2017-06-26T02:15:04.140Z,934.41
2017-06-26T02:15:22.920Z,934.42
2017-06-26T02:15:42.201Z,934.44
2017-06-26T02:16:01.491Z,934.43
2017-06-26T02:16:20.776Z,934.44
2017-06-26T02:16:40.102Z,934.44
2017-06-26T02:16:59.382Z,934.44
2017-06-26T02:17:18.674Z,934.47
2017-06-26T02:17:37.959Z,934.43
2017-06-26T02:17:57.258Z,934.45
2017-06-26T02:18:16.065Z,934.4
2017-06-26T02:18:35.358Z,934.39
2017-06-26T02:18:54.660Z,934.5
2017-06-26T02:19:13.444Z,934.45
2017-06-26T02:19:32.234Z,934.43
2017-06-26T02:19:51.545Z,934.42
2017-06-26T02:20:09.817Z,934.43
2017-06-26T02:20:28.597Z,934.43
2017-06-26T02:20:47.893Z,934.43
2017-06-26T02:21:07.196Z,934.42
2017-06-26T02:21:26.490Z,934.37
2017-06-26T02:21:45.809Z,934.41
2017-06-26T02:22:05.116Z,934.44
2017-06-26T02:22:24.415Z,934.43
2017-06-26T02:22:43.712Z,934.41
2017-06-26T02:23:02.998Z,934.42
2017-06-26T02:23:21.802Z,934.42
2017-06-26T02:23:41.137Z,934.42
2017-06-26T02:24:00.452Z,934.36
2017-06-26T02:24:19.712Z,934.38
2017-06-26T02:24:38.995Z,934.37
2017-06-26T02:24:58.311Z,934.38
2017-06-26T02:25:17.609Z,934.39
2017-06-26T02:25:36.875Z,934.39
2017-06-26T02:25:56.214Z,934.38
2017-06-26T02:26:15.513Z,934.43
2017-06-26T02:26:34.797Z,934.42
2017-06-26T02:26:54.080Z,934.41
2017-06-26T02:27:12.850Z,934.36
2017-06-26T02:27:32.120Z,934.41
2017-06-26T02:27:51.448Z,934.38
2017-06-26T02:28:10.240Z,934.39
2017-06-26T02:28:28.516Z,934.36
2017-06-26T02:28:47.814Z,934.38
2017-06-26T02:29:07.116Z,934.37
2017-06-26T02:29:25.912Z,934.36
2017-06-26T02:29:45.211Z,934.37
2017-06-26T02:30:04.523Z,934.38
2017-06-26T02:30:22.771Z,934.38
2017-06-26T02:30:42.087Z,934.32
2017-06-26T02:31:01.397Z,934.38
2017-06-26T02:31:20.707Z,934.37
2017-06-26T02:31:40.041Z,934.34
2017-06-26T02:31:59.340Z,934.37
2017-06-26T02:32:18.653Z,934.37
2017-06-26T02:32:37.961Z,934.35
2017-06-26T02:32:56.747Z,934.36
2017-06-26T02:33:16.045Z,934.32
2017-06-26T02:33:35.382Z,934.31
2017-06-26T02:33:54.161Z,934.32
2017-06-26T02:34:12.927Z,934.34
2017-06-26T02:34:32.228Z,934.33
2017-06-26T02:34:51.052Z,934.32
2017-06-26T02:35:09.848Z,934.32
2017-06-26T02:35:29.157Z,934.29
2017-06-26T02:35:48.455Z,934.3
2017-06-26T02:36:07.746Z,934.28
2017-06-26T02:36:27.065Z,934.27
2017-06-26T02:36:46.364Z,934.3
2017-06-26T02:37:05.676Z,934.27
2017-06-26T02:37:24.993Z,934.28
2017-06-26T02:37:44.301Z,934.27
2017-06-26T02:38:03.611Z,934.27
2017-06-26T02:38:22.400Z,934.27
2017-06-26T02:38:41.705Z,934.28
2017-06-26T02:39:00.496Z,934.26
2017-06-26T02:39:19.294Z,934.26
2017-06-26T02:39:38.605Z,934.21
2017-06-26T02:39:57.916Z,934.24
2017-06-26T02:40:16.700Z,934.19
2017-06-26T02:40:36.043Z,934.21
2017-06-26T02:40:55.370Z,934.21
2017-06-26T02:41:14.662Z,934.2
2017-06-26T02:41:33.988Z,934.22
2017-06-26T02:41:53.285Z,934.2
2017-06-26T02:42:12.597Z,934.17
2017-06-26T02:42:31.391Z,934.15
2017-06-26T02:42:50.711Z,934.19
2017-06-26T02:43:10.023Z,934.17
2017-06-26T02:43:28.811Z,934.15
2017-06-26T02:43:48.146Z,934.15
2017-06-26T02:44:06.951Z,934.18
2017-06-26T02:44:25.751Z,934.18
2017-06-26T02:44:45.061Z,934.16
2017-06-26T02:45:03.842Z,934.14
2017-06-26T02:45:22.606Z,934.16
2017-06-26T02:45:41.373Z,934.17
2017-06-26T02:46:00.655Z,934.15
2017-06-26T02:46:19.956Z,934.16
2017-06-26T02:46:38.753Z,934.18
2017-06-26T02:46:58.057Z,934.16
2017-06-26T02:47:16.832Z,934.17
2017-06-26T02:47:35.617Z,934.13
2017-06-26T02:47:54.929Z,934.16
2017-06-26T02:48:13.690Z,934.15
2017-06-26T02:48:32.980Z,934.17
2017-06-26T02:48:52.278Z,934.16
2017-06-26T02:49:11.085Z,934.16
2017-06-26T02:49:30.382Z,934.17
2017-06-26T02:49:49.681Z,934.12
2017-06-26T02:50:08.465Z,934.12
2017-06-26T02:50:27.761Z,934.12
2017-06-26T02:50:46.553Z,934.14
2017-06-26T02:51:05.363Z,934.11
2017-06-26T02:51:24.145Z,934.16
2017-06-26T02:51:43.414Z,934.12
2017-06-26T02:52:02.203Z,934.15
2017-06-26T02:52:21.495Z,934.14
2017-06-26T02:52:40.799Z,934.11
2017-06-26T02:53:00.136Z,934.12
2017-06-26T02:53:19.421Z,934.13
2017-06-26T02:53:38.722Z,934.05
2017-06-26T02:53:58.025Z,934.08
2017-06-26T02:54:17.320Z,934.03
2017-06-26T02:54:35.562Z,934.09
2017-06-26T02:54:54.903Z,934.1
2017-06-26T02:55:14.197Z,934.04
2017-06-26T02:55:33.496Z,934.11
2017-06-26T02:55:52.784Z,934.02
2017-06-26T02:56:12.104Z,934.06
2017-06-26T02:56:31.422Z,934.09
2017-06-26T02:56:50.758Z,934.1
2017-06-26T02:57:10.054Z,934.09
2017-06-26T02:57:29.359Z,934.07
2017-06-26T02:57:48.659Z,934.1
2017-06-26T02:58:07.949Z,934.15
2017-06-26T02:58:27.289Z,934.13
2017-06-26T02:58:46.612Z,934.13
2017-06-26T02:59:05.904Z,934.11
2017-06-26T02:59:25.254Z,934.07
2017-06-26T02:59:44.058Z,934.1
2017-06-26T03:00:03.384Z,934.1
2017-06-26T03:00:22.169Z,934.07
2017-06-26T03:00:41.468Z,934.09
2017-06-26T03:01:00.773Z,934.1
2017-06-26T03:01:19.543Z,934.11
2017-06-26T03:01:38.865Z,934.07
2017-06-26T03:01:58.168Z,934.07
2017-06-26T03:02:17.452Z,934.09
2017-06-26T03:02:36.744Z,934.09
2017-06-26T03:02:55.565Z,934.1
2017-06-26T03:03:14.845Z,934.08
2017-06-26T03:03:33.628Z,934.06
2017-06-26T03:03:52.929Z,934.08
2017-06-26T03:04:11.184Z,934.1
2017-06-26T03:04:29.469Z,934.07
2017-06-26T03:04:48.282Z,934.09
2017-06-26T03:05:06.567Z,934.08
2017-06-26T03:05:25.880Z,934.06
2017-06-26T03:05:45.172Z,934.09
2017-06-26T03:06:03.950Z,934.06
2017-06-26T03:06:23.243Z,934.08
2017-06-26T03:06:42.008Z,934.06
2017-06-26T03:07:01.335Z,934.06
2017-06-26T03:07:20.121Z,934.1
2017-06-26T03:07:39.421Z,934.07
2017-06-26T03:07:58.704Z,934.1
2017-06-26T03:08:18.054Z,934.08
2017-06-26T03:08:37.331Z,934.04
2017-06-26T03:08:56.118Z,934.08
2017-06-26T03:09:15.425Z,934.06
2017-06-26T03:09:34.710Z,934.06
2017-06-26T03:09:53.984Z,934.08
2017-06-26T03:10:13.316Z,934.08
2017-06-26T03:10:32.607Z,934.09
2017-06-26T03:10:51.889Z,934.11
2017-06-26T03:11:11.211Z,934.12
2017-06-26T03:11:30.549Z,934.09
2017-06-26T03:11:49.856Z,934.07
2017-06-26T03:12:09.189Z,934.08
2017-06-26T03:12:28.462Z,934.08
2017-06-26T03:12:47.749Z,934.07
2017-06-26T03:13:06.525Z,934.1
2017-06-26T03:13:25.813Z,934.08
2017-06-26T03:13:45.097Z,934.06
2017-06-26T03:14:03.937Z,934.07
2017-06-26T03:14:23.239Z,934.01
2017-06-26T03:14:42.552Z,934.05
2017-06-26T03:15:01.334Z,934.03
2017-06-26T03:15:19.615Z,934.03
2017-06-26T03:15:38.923Z,934.02
2017-06-26T03:15:58.207Z,933.99
2017-06-26T03:16:17.478Z,934.04
2017-06-26T03:16:36.776Z,934.01
2017-06-26T03:16:56.066Z,934
2017-06-26T03:17:15.394Z,934
2017-06-26T03:17:34.698Z,934
2017-06-26T03:17:54.003Z,934.02
2017-06-26T03:18:13.294Z,934.02
2017-06-26T03:18:32.601Z,934.01
2017-06-26T03:18:51.911Z,933.96
2017-06-26T03:19:10.681Z,933.94
2017-06-26T03:19:28.973Z,933.95
2017-06-26T03:19:48.287Z,933.94
2017-06-26T03:20:07.615Z,933.97
2017-06-26T03:20:26.919Z,933.97
2017-06-26T03:20:46.198Z,933.99
2017-06-26T03:21:05.498Z,933.98
2017-06-26T03:21:24.775Z,933.97
2017-06-26T03:21:44.088Z,933.96
2017-06-26T03:22:03.409Z,933.97
2017-06-26T03:22:22.738Z,933.99
2017-06-26T03:22:42.101Z,934
2017-06-26T03:23:00.873Z,933.97
2017-06-26T03:23:19.632Z,934
2017-06-26T03:23:38.916Z,933.99
2017-06-26T03:23:57.705Z,934
2017-06-26T03:24:16.991Z,933.97
2017-06-26T03:24:36.306Z,933.96
2017-06-26T03:24:55.097Z,933.95
2017-06-26T03:25:13.909Z,933.98
2017-06-26T03:25:32.173Z,933.91
2017-06-26T03:25:50.937Z,933.95
2017-06-26T03:26:10.260Z,933.96
2017-06-26T03:26:29.557Z,933.96
2017-06-26T03:26:48.887Z,933.92
2017-06-26T03:27:08.189Z,933.96
2017-06-26T03:27:27.515Z,933.92
2017-06-26T03:27:46.860Z,933.92
2017-06-26T03:28:06.190Z,933.93
2017-06-26T03:28:24.977Z,933.94
2017-06-26T03:28:44.286Z,933.89
2017-06-26T03:29:03.589Z,933.9
2017-06-26T03:29:22.908Z,933.9
2017-06-26T03:29:42.195Z,933.91
2017-06-26T03:30:01.483Z,933.87
2017-06-26T03:30:19.744Z,933.86
2017-06-26T03:30:38.538Z,933.9
2017-06-26T03:30:57.828Z,933.86
2017-06-26T03:31:17.107Z,933.85
2017-06-26T03:31:36.422Z,933.83
2017-06-26T03:31:55.709Z,933.83
2017-06-26T03:32:14.507Z,933.86
2017-06-26T03:32:33.834Z,933.85
2017-06-26T03:32:53.131Z,933.86
2017-06-26T03:33:12.423Z,933.88
2017-06-26T03:33:31.697Z,933.84
2017-06-26T03:33:51.000Z,933.85
2017-06-26T03:34:09.804Z,933.9
2017-06-26T03:34:29.123Z,933.85
2017-06-26T03:34:48.425Z,933.85
2017-06-26T03:35:07.710Z,933.85
2017-06-26T03:35:26.489Z,933.89
2017-06-26T03:35:45.802Z,933.87
2017-06-26T03:36:05.148Z,933.86
2017-06-26T03:36:24.441Z,933.88
2017-06-26T03:36:43.215Z,933.87
2017-06-26T03:37:01.992Z,933.86
2017-06-26T03:37:20.773Z,933.84
2017-06-26T03:37:39.546Z,933.83
2017-06-26T03:37:58.888Z,933.85
2017-06-26T03:38:18.197Z,933.86
2017-06-26T03:38:37.484Z,933.86
2017-06-26T03:38:56.790Z,933.83
2017-06-26T03:39:16.107Z,933.85
2017-06-26T03:39:34.907Z,933.87
2017-06-26T03:39:54.206Z,933.88
2017-06-26T03:40:13.524Z,933.82
2017-06-26T03:40:32.836Z,933.83
2017-06-26T03:40:52.143Z,933.82
2017-06-26T03:41:11.452Z,933.84
2017-06-26T03:41:30.270Z,933.79
2017-06-26T03:41:49.060Z,933.84
2017-06-26T03:42:08.354Z,933.86
2017-06-26T03:42:27.647Z,933.84
2017-06-26T03:42:46.422Z,933.82
2017-06-26T03:43:05.725Z,933.82
2017-06-26T03:43:25.015Z,933.83
2017-06-26T03:43:44.337Z,933.84
2017-06-26T03:44:03.652Z,933.85
2017-06-26T03:44:22.965Z,933.79
2017-06-26T03:44:42.241Z,933.77
2017-06-26T03:45:01.558Z,933.75
2017-06-26T03:45:20.851Z,933.76
2017-06-26T03:45:39.621Z,933.74
2017-06-26T03:45:58.394Z,933.76
2017-06-26T03:46:17.681Z,933.76
2017-06-26T03:46:36.971Z,933.76
2017-06-26T03:46:56.299Z,933.74
2017-06-26T03:47:15.624Z,933.8
2017-06-26T03:47:34.908Z,933.78
2017-06-26T03:47:54.214Z,933.76
2017-06-26T03:48:13.523Z,933.76
2017-06-26T03:48:32.874Z,933.76
2017-06-26T03:48:51.635Z,933.77
2017-06-26T03:49:10.930Z,933.73
2017-06-26T03:49:29.690Z,933.69
2017-06-26T03:49:48.992Z,933.77
2017-06-26T03:50:08.275Z,933.74
2017-06-26T03:50:27.073Z,933.72
2017-06-26T03:50:46.386Z,933.76
2017-06-26T03:51:05.717Z,933.75
2017-06-26T03:51:25.028Z,933.73
2017-06-26T03:51:44.319Z,933.76
2017-06-26T03:52:03.609Z,933.72
2017-06-26T03:52:22.930Z,933.75
2017-06-26T03:52:42.246Z,933.72
2017-06-26T03:53:01.553Z,933.71
2017-06-26T03:53:20.863Z,933.74
2017-06-26T03:53:40.162Z,933.71
2017-06-26T03:53:59.458Z,933.69
2017-06-26T03:54:18.776Z,933.7
2017-06-26T03:54:38.074Z,933.72
2017-06-26T03:54:57.373Z,933.71
2017-06-26T03:55:16.691Z,933.73
2017-06-26T03:55:35.998Z,933.72
2017-06-26T03:55:54.801Z,933.74
2017-06-26T03:56:14.108Z,933.77
2017-06-26T03:56:32.911Z,933.74
2017-06-26T03:56:52.221Z,933.77
2017-06-26T03:57:11.541Z,933.76
2017-06-26T03:57:30.315Z,933.77
2017-06-26T03:57:49.613Z,933.77
2017-06-26T03:58:08.401Z,933.78
2017-06-26T03:58:27.695Z,933.77
2017-06-26T03:58:46.998Z,933.75
2017-06-26T03:59:06.304Z,933.79
2017-06-26T03:59:25.609Z,933.79
2017-06-26T03:59:44.912Z,933.77
2017-06-26T04:00:04.227Z,933.76